Time;durP1;ratioP1;P1;durP2;ratioP2;P2;SDS_P1;SDS_P2;PMS_P1;PMS_P2;Temp;Humidity;BMP_temperature;BMP_pressure;BME280_temperature;BME280_humidity;BME280_pressure;Samples;Min_cycle;Max_cycle;Signal;HPM_P1;HPM_P2
2022/06/10 00:00:53;;;;;;;2.88;2.35;;;;;;;;;;5155906;27;20023;-79
2022/06/10 00:03:20;;;;;;;2.15;1.92;;;;;;;;;;5155905;27;20031;-79
2022/06/10 00:05:48;;;;;;;2.40;2.08;;;;;;;;;;5155821;27;20051;-79
2022/06/10 00:08:16;;;;;;;2.67;2.08;;;;;;;;;;5155781;27;20022;-79
2022/06/10 00:10:45;;;;;;;5.85;2.20;;;;;;;;;;5155684;27;20023;-79
2022/06/10 00:13:12;;;;;;;2.45;2.10;;;;;;;;;;5137090;27;21003;-79
2022/06/10 00:15:38;;;;;;;2.38;2.05;;;;;;;;;;5155529;27;20410;-79
2022/06/10 00:18:04;;;;;;;2.40;2.20;;;;;;;;;;5155562;27;20015;-79
2022/06/10 00:20:32;;;;;;;3.72;2.90;;;;;;;;;;5155518;27;20034;-79
2022/06/10 00:22:58;;;;;;;3.22;2.92;;;;;;;;;;5155376;27;20015;-79
2022/06/10 00:25:24;;;;;;;2.92;2.60;;;;;;;;;;5155439;27;20019;-79
2022/06/10 00:27:50;;;;;;;3.40;3.03;;;;;;;;;;5155202;27;20075;-79
2022/06/10 00:30:18;;;;;;;3.63;3.00;;;;;;;;;;5155365;27;20022;-79
2022/06/10 00:32:44;;;;;;;4.60;3.17;;;;;;;;;;5155232;27;20070;-79
2022/06/10 00:35:11;;;;;;;4.38;3.15;;;;;;;;;;5136668;27;20481;-79
2022/06/10 00:37:37;;;;;;;3.58;3.28;;;;;;;;;;5155355;27;20027;-79
2022/06/10 00:40:04;;;;;;;3.40;3.10;;;;;;;;;;5154936;27;20214;-79
2022/06/10 00:42:30;;;;;;;3.30;2.90;;;;;;;;;;5154952;27;20015;-79
2022/06/10 00:44:56;;;;;;;3.80;3.50;;;;;;;;;;5154681;27;20050;-79
2022/06/10 00:47:31;;;;;;;4.53;3.47;;;;;;;;;;5136397;27;20582;-79
2022/06/10 00:49:59;;;;;;;3.42;3.13;;;;;;;;;;5154810;27;20018;-79
2022/06/10 00:52:31;;;;;;;4.13;3.70;;;;;;;;;;5154921;27;20067;-79
2022/06/10 00:54:57;;;;;;;3.60;3.25;;;;;;;;;;5136212;27;20041;-79
2022/06/10 00:57:30;;;;;;;6.47;4.55;;;;;;;;;;5136322;27;20025;-79
2022/06/10 01:00:00;;;;;;;4.47;4.07;;;;;;;;;;5154107;27;20411;-79
2022/06/10 01:02:27;;;;;;;3.90;3.35;;;;;;;;;;5154737;27;20485;-79
2022/06/10 01:04:55;;;;;;;3.88;3.47;;;;;;;;;;5154667;27;20032;-79
2022/06/10 01:07:22;;;;;;;5.32;4.32;;;;;;;;;;5154694;27;20019;-79
2022/06/10 01:09:49;;;;;;;5.15;4.20;;;;;;;;;;5136040;27;20109;-79
2022/06/10 01:12:38;;;;;;;7.35;5.60;;;;;;;;;;5154704;27;20103;-80
2022/06/10 01:15:23;;;;;;;6.60;6.00;;;;;;;;;;5141638;27;20042;-79
2022/06/10 01:17:58;;;;;;;6.88;6.10;;;;;;;;;;5154558;27;20018;-79
2022/06/10 01:20:34;;;;;;;7.22;6.55;;;;;;;;;;5154441;27;20023;-79
2022/06/10 01:23:09;;;;;;;10.05;7.45;;;;;;;;;;5154341;27;20027;-79
2022/06/10 01:25:48;;;;;;;7.85;7.15;;;;;;;;;;5154245;27;20029;-79
2022/06/10 01:28:14;;;;;;;10.05;7.28;;;;;;;;;;5154434;27;20430;-79
2022/06/10 01:30:46;;;;;;;7.55;6.78;;;;;;;;;;5154204;27;20025;-79
2022/06/10 01:33:12;;;;;;;7.43;6.70;;;;;;;;;;5135744;27;20039;-78
2022/06/10 01:35:57;;;;;;;6.80;6.15;;;;;;;;;;5154120;27;20022;-79
2022/06/10 01:38:27;;;;;;;6.40;5.90;;;;;;;;;;5154095;27;20106;-79
2022/06/10 01:40:53;;;;;;;6.15;5.53;;;;;;;;;;5135705;27;20022;-79
2022/06/10 01:43:19;;;;;;;5.57;5.07;;;;;;;;;;5153777;27;20046;-79
2022/06/10 01:45:52;;;;;;;4.47;4.07;;;;;;;;;;5154281;27;20046;-79
2022/06/10 01:48:22;;;;;;;4.68;3.60;;;;;;;;;;5153945;27;20102;-79
2022/06/10 01:50:56;;;;;;;3.70;3.40;;;;;;;;;;5154296;27;20019;-79
2022/06/10 01:53:45;;;;;;;4.72;3.33;;;;;;;;;;5153831;27;20485;-79
2022/06/10 01:56:26;;;;;;;3.72;3.22;;;;;;;;;;5154218;27;20103;-79
2022/06/10 01:58:56;;;;;;;5.03;3.65;;;;;;;;;;5153837;27;20019;-79
2022/06/10 02:01:35;;;;;;;4.90;3.15;;;;;;;;;;5135228;27;20018;-80
2022/06/10 02:04:19;;;;;;;5.80;3.63;;;;;;;;;;5153980;27;20105;-80
2022/06/10 02:06:45;;;;;;;;;;;;;;;;;;5135936;27;20033;-79
2022/06/10 02:09:15;;;;;;;20.65;18.45;;;;;;;;;;5153855;27;19903;-79
2022/06/10 02:11:44;;;;;;;7.63;6.60;;;;;;;;;;5157242;27;20438;-79
2022/06/10 02:14:17;;;;;;;3.92;3.13;;;;;;;;;;5157836;27;20469;-79
2022/06/10 02:16:45;;;;;;;5.78;3.70;;;;;;;;;;5158012;27;20023;-79
2022/06/10 02:19:30;;;;;;;3.33;2.80;;;;;;;;;;5157874;27;20381;-79
2022/06/10 02:22:02;;;;;;;5.13;3.70;;;;;;;;;;5157784;27;20461;-79
2022/06/10 02:24:36;;;;;;;5.82;3.97;;;;;;;;;;5157797;27;20022;-79
2022/06/10 02:27:04;;;;;;;4.82;3.50;;;;;;;;;;5157869;27;20503;-79
2022/06/10 02:29:33;;;;;;;5.05;4.15;;;;;;;;;;5157667;27;20019;-79
2022/06/10 02:32:00;;;;;;;5.60;4.60;;;;;;;;;;5157682;27;20372;-78
2022/06/10 02:34:27;;;;;;;5.68;5.18;;;;;;;;;;5157233;27;20030;-78
2022/06/10 02:37:04;;;;;;;5.47;4.65;;;;;;;;;;5157392;27;20350;-79
2022/06/10 02:39:49;;;;;;;4.70;4.22;;;;;;;;;;5157137;27;20022;-78
2022/06/10 02:42:30;;;;;;;5.05;4.55;;;;;;;;;;5157156;27;20018;-80
2022/06/10 02:45:02;;;;;;;5.03;4.43;;;;;;;;;;5156996;27;20043;-79
2022/06/10 02:47:31;;;;;;;8.10;4.10;;;;;;;;;;5138815;27;20473;-79
2022/06/10 02:49:57;;;;;;;7.15;4.93;;;;;;;;;;5157068;27;20134;-80
2022/06/10 02:52:25;;;;;;;5.32;4.57;;;;;;;;;;5157310;27;20025;-78
2022/06/10 02:54:51;;;;;;;30.55;27.40;;;;;;;;;;5138458;27;20030;-78
2022/06/10 02:57:19;;;;;;;8.43;5.80;;;;;;;;;;5157106;27;20027;-78
2022/06/10 03:02:35;;;;;;;8.77;7.88;;;;;;;;;;5157287;27;20038;-79
2022/06/10 03:05:13;;;;;;;7.32;5.00;;;;;;;;;;5156939;27;20023;-79
2022/06/10 03:07:58;;;;;;;9.27;6.53;;;;;;;;;;5156864;27;20034;-79
2022/06/10 03:10:27;;;;;;;15.63;13.00;;;;;;;;;;5156702;27;20019;-79
2022/06/10 03:13:02;;;;;;;8.90;6.55;;;;;;;;;;5156947;27;20473;-79
2022/06/10 03:15:28;;;;;;;7.53;4.72;;;;;;;;;;5156853;27;20114;-79
2022/06/10 03:18:00;;;;;;;4.93;4.25;;;;;;;;;;5156836;27;20093;-79
2022/06/10 03:20:41;;;;;;;6.30;4.90;;;;;;;;;;5156712;27;20104;-79
2022/06/10 03:23:13;;;;;;;6.25;4.72;;;;;;;;;;5156128;27;20025;-80
2022/06/10 03:25:58;;;;;;;7.85;5.68;;;;;;;;;;5156618;27;20010;-80
2022/06/10 03:28:43;;;;;;;21.15;18.25;;;;;;;;;;5156600;27;20025;-79
2022/06/10 03:31:12;;;;;;;5.75;4.88;;;;;;;;;;5156519;27;20026;-79
2022/06/10 03:33:44;;;;;;;15.50;13.98;;;;;;;;;;5137945;27;20486;-79
2022/06/10 03:36:12;;;;;;;7.20;6.47;;;;;;;;;;5156336;27;20098;-80
2022/06/10 03:38:40;;;;;;;8.07;7.07;;;;;;;;;;5156386;27;20094;-80
2022/06/10 03:41:06;;;;;;;8.25;7.25;;;;;;;;;;5156276;27;20134;-80
2022/06/10 03:43:38;;;;;;;8.40;7.50;;;;;;;;;;5156104;27;20096;-79
2022/06/10 03:46:06;;;;;;;5.32;3.70;;;;;;;;;;5156304;27;20469;-80
2022/06/10 03:48:33;;;;;;;4.45;4.05;;;;;;;;;;5156233;27;20023;-80
2022/06/10 03:51:00;;;;;;;3.90;3.38;;;;;;;;;;5156182;27;20023;-80
2022/06/10 03:53:26;;;;;;;56.58;50.50;;;;;;;;;;5156028;27;20041;-80
2022/06/10 03:56:04;;;;;;;18.67;16.75;;;;;;;;;;5156087;27;20046;-80
2022/06/10 03:58:37;;;;;;;6.28;5.57;;;;;;;;;;5137592;27;20079;-81
2022/06/10 04:01:06;;;;;;;4.32;3.33;;;;;;;;;;5155763;27;20101;-80
2022/06/10 04:03:35;;;;;;;4.30;2.83;;;;;;;;;;5156058;27;20023;-81
2022/06/10 04:06:01;;;;;;;3.10;2.55;;;;;;;;;;5137369;27;20023;-80
2022/06/10 04:08:30;;;;;;;4.97;3.30;;;;;;;;;;5136783;27;20031;-80
2022/06/10 04:10:56;;;;;;;4.32;3.67;;;;;;;;;;5155597;27;20023;-80
2022/06/10 04:13:22;;;;;;;5.78;4.30;;;;;;;;;;5155780;27;20023;-80
2022/06/10 04:15:48;;;;;;;4.45;3.70;;;;;;;;;;5155555;27;20018;-80
2022/06/10 04:18:17;;;;;;;5.72;4.45;;;;;;;;;;5155693;27;20018;-80
2022/06/10 04:20:51;;;;;;;4.70;4.30;;;;;;;;;;5155636;27;20022;-80
2022/06/10 04:23:17;;;;;;;6.47;4.10;;;;;;;;;;5155576;27;20490;-79
2022/06/10 04:26:12;;;;;;;;;;;;;;;;;;;;;
2022/06/10 04:28:43;;;;;;;6.45;3.17;;;;;;;;;;5155327;27;20019;-81
2022/06/10 04:31:09;;;;;;;3.85;2.67;;;;;;;;;;5155535;27;20018;-80
2022/06/10 04:33:43;;;;;;;5.55;3.47;;;;;;;;;;5154214;27;20026;-80
2022/06/10 04:36:33;;;;;;;3.67;2.80;;;;;;;;;;5155273;27;20034;-81
2022/06/10 04:38:59;;;;;;;6.70;3.35;;;;;;;;;;5155072;27;20030;-79
2022/06/10 04:41:56;;;;;;;8.68;2.85;;;;;;;;;;5155280;27;20018;-82
2022/06/10 04:44:45;;;;;;;;;;;;;;;;;;;;;
2022/06/10 04:47:02;;;;;;;5.63;3.00;;;;;;;;;;5149892;27;20023;-81
2022/06/10 04:49:59;;;;;;;;;;;;;;;;;;;;;
2022/06/10 04:52:22;;;;;;;2.83;2.33;;;;;;;;;;5149771;27;20023;-82
2022/06/10 04:54:49;;;;;;;4.82;2.22;;;;;;;;;;5154785;27;20026;-81
2022/06/10 05:00:24;;;;;;;5.10;4.60;;;;;;;;;;5090945;28;20017;-83
2022/06/10 05:03:23;;;;;;;;;;;;;;;;;;;;;
2022/06/10 05:05:52;;;;;;;8.98;5.45;;;;;;;;;;5074150;28;20036;-82
2022/06/10 05:08:23;;;;;;;5.35;3.13;;;;;;;;;;5090910;28;20107;-82
2022/06/10 05:10:52;;;;;;;4.95;2.63;;;;;;;;;;5108823;27;20106;-82
2022/06/10 05:13:20;;;;;;;2.60;2.03;;;;;;;;;;5154437;27;20027;-82
2022/06/10 05:15:47;;;;;;;4.03;2.00;;;;;;;;;;5154637;27;20030;-82
2022/06/10 05:18:14;;;;;;;5.85;2.08;;;;;;;;;;5154425;27;20015;-82
2022/06/10 05:20:41;;;;;;;3.78;2.55;;;;;;;;;;5154376;27;20561;-83
2022/06/10 05:23:08;;;;;;;3.63;2.25;;;;;;;;;;5154161;27;20461;-84
2022/06/10 05:25:34;;;;;;;2.70;2.28;;;;;;;;;;5135906;27;20018;-83
2022/06/10 05:28:01;;;;;;;7.22;6.15;;;;;;;;;;5154286;27;20022;-82
2022/06/10 05:30:30;;;;;;;9.23;7.93;;;;;;;;;;5154452;27;20093;-83
2022/06/10 05:36:03;;;;;;;3.38;2.47;;;;;;;;;;5137302;27;20086;-85
2022/06/10 05:38:29;;;;;;;2.35;2.03;;;;;;;;;;5154154;27;20026;-82
2022/06/10 05:42:04;;;;;;;6.22;2.55;;;;;;;;;;5135845;27;20022;-84
2022/06/10 05:43:44;;;;;;;5.72;2.60;;;;;;;;;;5153966;27;20053;-84
2022/06/10 05:55:34;;;;;;;2.70;2.20;;;;;;;;;;5029890;28;20462;-84
2022/06/10 06:08:54;;;;;;;4.72;4.22;;;;;;;;;;4971305;28;20134;-83
2022/06/10 06:33:47;;;;;;;2.05;1.92;;;;;;;;;;4839290;29;20078;-83
2022/06/10 06:45:38;;;;;;;;;;;;;;;;;;4951360;29;20051;-86
2022/06/10 06:48:37;;;;;;;;;;;;;;;;;;;;;
2022/06/10 06:51:21;;;;;;;4.20;1.70;;;;;;;;;;5019122;28;20411;-84
2022/06/10 06:53:50;;;;;;;2.93;2.17;;;;;;;;;;5085511;27;20066;-83
2022/06/10 06:56:16;;;;;;;2.03;1.52;;;;;;;;;;5153489;27;20029;-83
2022/06/10 06:59:13;;;;;;;;;;;;;;;;;;;;;
2022/06/10 07:01:45;;;;;;;3.63;1.98;;;;;;;;;;5156834;27;20034;-82
2022/06/10 07:04:36;;;;;;;3.05;1.60;;;;;;;;;;5138527;27;20499;-85
2022/06/10 07:07:02;;;;;;;2.45;1.95;;;;;;;;;;5156610;27;20026;-84
2022/06/10 07:09:39;;;;;;;4.00;2.33;;;;;;;;;;5157043;27;20050;-84
2022/06/10 07:12:05;;;;;;;3.58;2.10;;;;;;;;;;5138026;27;20027;-83
2022/06/10 07:14:31;;;;;;;3.92;1.83;;;;;;;;;;5156828;27;20026;-84
2022/06/10 07:17:05;;;;;;;120.95;106.90;;;;;;;;;;5156791;27;20014;-82
2022/06/10 07:19:32;;;;;;;7.00;6.03;;;;;;;;;;5138237;27;20042;-83
2022/06/10 07:21:59;;;;;;;3.13;2.25;;;;;;;;;;5156730;27;20022;-82
2022/06/10 07:24:30;;;;;;;2.67;1.80;;;;;;;;;;5138182;27;20053;-82
2022/06/10 07:27:00;;;;;;;2.83;1.75;;;;;;;;;;5138043;27;20022;-81
2022/06/10 07:29:27;;;;;;;2.78;1.52;;;;;;;;;;5138373;27;20839;-82
2022/06/10 07:31:53;;;;;;;1.88;1.63;;;;;;;;;;5156595;27;20026;-83
2022/06/10 07:34:19;;;;;;;1.95;1.75;;;;;;;;;;5156434;27;20106;-84
2022/06/10 07:36:45;;;;;;;2.67;1.90;;;;;;;;;;5156561;27;20385;-85
2022/06/10 07:39:12;;;;;;;3.10;1.60;;;;;;;;;;5137716;27;20030;-84
2022/06/10 07:44:33;;;;;;;2.00;1.50;;;;;;;;;;5156450;27;20038;-84
2022/06/10 07:47:01;;;;;;;4.25;1.63;;;;;;;;;;5156326;27;20469;-84
2022/06/10 07:49:27;;;;;;;1.85;1.40;;;;;;;;;;5156284;27;20027;-82
2022/06/10 07:52:04;;;;;;;;;;;;;;;;;;;;;
2022/06/10 07:54:34;;;;;;;1.75;1.63;;;;;;;;;;5156135;27;20041;-84
2022/06/10 07:57:11;;;;;;;2.70;1.80;;;;;;;;;;5156192;27;20094;-83
2022/06/10 07:59:40;;;;;;;3.05;1.85;;;;;;;;;;5156138;27;20019;-83
2022/06/10 08:02:06;;;;;;;1.67;1.55;;;;;;;;;;5155955;27;20023;-83
2022/06/10 08:07:31;;;;;;;3.75;2.50;;;;;;;;;;5155910;27;20069;-81
2022/06/10 08:09:59;;;;;;;2.97;1.70;;;;;;;;;;5155530;27;20102;-84
2022/06/10 08:12:33;;;;;;;4.72;2.70;;;;;;;;;;5155743;27;20058;-83
2022/06/10 08:14:59;;;;;;;1.83;1.60;;;;;;;;;;5155429;27;20023;-82
2022/06/10 08:17:25;;;;;;;2.40;2.08;;;;;;;;;;5155597;27;20045;-81
2022/06/10 08:22:32;;;;;;;1.67;1.58;;;;;;;;;;5155517;27;20030;-85
2022/06/10 08:23:07;;;;;;;3.20;2.47;;;;;;;;;;5146913;27;20362;-84
2022/06/10 08:26:15;;;;;;;;;;;;;;;;;;;;;
2022/06/10 08:28:45;;;;;;;2.38;1.48;;;;;;;;;;5153563;27;20490;-84
2022/06/10 08:31:14;;;;;;;2.80;1.67;;;;;;;;;;5136699;27;20059;-85
2022/06/10 08:33:41;;;;;;;4.00;1.65;;;;;;;;;;5136586;27;20023;-87
2022/06/10 08:36:33;;;;;;;2.58;1.70;;;;;;;;;;5136690;27;20362;-84
2022/06/10 08:39:01;;;;;;;3.78;1.63;;;;;;;;;;5136474;27;20071;-85
2022/06/10 08:41:46;;;;;;;1.98;1.42;;;;;;;;;;5154785;27;20015;-81
2022/06/10 08:44:15;;;;;;;4.38;2.22;;;;;;;;;;5154785;27;20022;-82
2022/06/10 08:46:43;;;;;;;2.35;1.50;;;;;;;;;;5155105;27;20032;-82
2022/06/10 08:58:02;;;;;;;7.13;3.83;;;;;;;;;;5091099;28;20088;-83
2022/06/10 09:00:46;;;;;;;2.85;1.63;;;;;;;;;;5090985;28;20032;-84
2022/06/10 09:03:31;;;;;;;2.13;1.67;;;;;;;;;;5132971;27;20058;-83
2022/06/10 09:06:18;;;;;;;1.40;1.13;;;;;;;;;;5154950;27;20027;-86
2022/06/10 09:14:55;;;;;;;1.35;1.25;;;;;;;;;;5058321;28;20115;-85
2022/06/10 09:17:41;;;;;;;10.63;6.95;;;;;;;;;;5070504;28;20511;-84
2022/06/10 09:20:40;;;;;;;11.48;7.95;;;;;;;;;;5069982;28;20043;-83
2022/06/10 09:23:14;;;;;;;5.28;2.92;;;;;;;;;;5069833;28;20040;-83
2022/06/10 09:25:47;;;;;;;3.70;2.17;;;;;;;;;;5099296;27;20351;-81
2022/06/10 09:28:44;;;;;;;;;;;;;;;;;;;;;
2022/06/10 09:43:16;;;;;;;4.00;1.90;;;;;;;;;;5153982;27;20034;-82
2022/06/10 09:46:02;;;;;;;10.75;4.18;;;;;;;;;;5153932;27;20041;-82
2022/06/10 09:48:47;;;;;;;23.83;9.80;;;;;;;;;;5153333;27;20062;-83
2022/06/10 09:51:34;;;;;;;13.20;6.03;;;;;;;;;;5153954;27;20026;-85
2022/06/10 09:54:21;;;;;;;11.35;4.65;;;;;;;;;;5153914;27;20447;-84
2022/06/10 09:59:55;;;;;;;3.88;2.15;;;;;;;;;;5121626;27;20034;-82
2022/06/10 10:02:34;;;;;;;13.50;6.25;;;;;;;;;;5135356;27;20018;-81
2022/06/10 10:05:34;;;;;;;20.88;9.88;;;;;;;;;;5135286;27;20358;-83
2022/06/10 10:08:06;;;;;;;7.28;3.58;;;;;;;;;;5152799;27;20026;-84
2022/06/10 10:10:40;;;;;;;7.07;2.95;;;;;;;;;;5132159;27;20018;-83
2022/06/10 10:13:23;;;;;;;2.30;1.20;;;;;;;;;;5135001;27;20029;-84
2022/06/10 10:16:28;;;;;;;;;;;;;;;;;;;;;
2022/06/10 10:19:09;;;;;;;1.98;1.55;;;;;;;;;;5068366;28;20519;-85
2022/06/10 10:21:57;;;;;;;1.63;1.52;;;;;;;;;;5068215;27;20114;-85
2022/06/10 10:24:28;;;;;;;5.43;2.65;;;;;;;;;;5135148;27;20026;-82
2022/06/10 10:26:55;;;;;;;8.05;3.70;;;;;;;;;;5153869;27;20030;-84
2022/06/10 10:30:05;;;;;;;14.80;7.50;;;;;;;;;;5153654;27;20046;-85
2022/06/10 10:32:55;;;;;;;5.38;2.90;;;;;;;;;;5153958;27;20030;-86
2022/06/10 10:35:35;;;;;;;4.63;3.15;;;;;;;;;;5138722;27;20050;-83
2022/06/10 10:38:27;;;;;;;33.22;23.52;;;;;;;;;;5157494;27;20019;-84
2022/06/10 10:40:53;;;;;;;14.15;11.98;;;;;;;;;;5073038;28;20510;-83
2022/06/10 10:43:19;;;;;;;13.43;8.38;;;;;;;;;;5056489;28;20089;-83
2022/06/10 10:46:11;;;;;;;12.90;7.07;;;;;;;;;;5109843;27;20047;-85
2022/06/10 10:48:48;;;;;;;3.45;2.13;;;;;;;;;;5104085;27;20027;-83
2022/06/10 11:14:33;;;;;;;3.80;1.60;;;;;;;;;;6014125;23;2205505;-82
2022/06/10 11:17:13;;;;;;;2.08;1.50;;;;;;;;;;6104139;23;20013;-83
2022/06/10 11:19:43;;;;;;;4.38;3.05;;;;;;;;;;6078433;23;20006;-82
2022/06/10 11:22:09;;;;;;;3.58;1.52;;;;;;;;;;6104503;23;20784;-81
2022/06/10 11:24:40;;;;;;;4.80;2.10;;;;;;;;;;6104357;23;20013;-80
2022/06/10 11:27:29;;;;;;;3.78;1.50;;;;;;;;;;6104386;23;20010;-81
2022/06/10 11:30:06;;;;;;;3.00;1.92;;;;;;;;;;6086137;23;20340;-80
2022/06/10 11:32:38;;;;;;;3.85;2.13;;;;;;;;;;6104335;23;20010;-82
2022/06/10 11:35:20;;;;;;;1.70;1.40;;;;;;;;;;6104218;23;20002;-81
2022/06/10 11:37:50;;;;;;;3.65;1.30;;;;;;;;;;6104040;23;20010;-82
2022/06/10 11:40:21;;;;;;;3.88;1.70;;;;;;;;;;6104227;23;20009;-81
2022/06/10 11:42:51;;;;;;;3.33;1.45;;;;;;;;;;6104036;23;20009;-79
2022/06/10 11:45:19;;;;;;;3.42;1.48;;;;;;;;;;6104459;23;20002;-81
2022/06/10 11:47:48;;;;;;;5.00;2.42;;;;;;;;;;6078405;23;20003;-80
2022/06/10 11:50:33;;;;;;;3.63;1.55;;;;;;;;;;6104386;23;20006;-81
2022/06/10 11:53:02;;;;;;;2.17;1.70;;;;;;;;;;6104246;23;20006;-82
2022/06/10 11:55:31;;;;;;;3.67;2.30;;;;;;;;;;6103891;23;20066;-81
2022/06/10 12:00:53;;;;;;;3.03;1.40;;;;;;;;;;6104149;23;20017;-85
2022/06/10 12:03:19;;;;;;;2.90;1.70;;;;;;;;;;6103923;23;20026;-80
2022/06/10 12:06:04;;;;;;;2.40;1.60;;;;;;;;;;6078394;23;20006;-80
2022/06/10 12:08:30;;;;;;;3.25;1.95;;;;;;;;;;6101602;23;20002;-81
2022/06/10 12:11:14;;;;;;;3.00;1.60;;;;;;;;;;6097359;23;20009;-79
2022/06/10 12:13:40;;;;;;;;;;;;;;;;;;6097619;23;20461;-83
2022/06/10 12:16:09;;;;;;;3.88;2.88;;;;;;;;;;6097508;23;19905;-82
2022/06/10 12:18:42;;;;;;;3.50;2.28;;;;;;;;;;6097357;23;20017;-84
2022/06/10 12:21:15;;;;;;;11.40;9.52;;;;;;;;;;6097511;23;20002;-83
2022/06/10 12:23:43;;;;;;;2.13;1.80;;;;;;;;;;6097318;23;20370;-81
2022/06/10 12:26:20;;;;;;;3.35;2.25;;;;;;;;;;6072181;23;20013;-82
2022/06/10 12:28:48;;;;;;;4.68;2.60;;;;;;;;;;6097458;23;20007;-83
2022/06/10 12:31:17;;;;;;;6.85;3.20;;;;;;;;;;6071530;23;20006;-83
2022/06/10 12:34:02;;;;;;;3.33;2.10;;;;;;;;;;6071764;23;20329;-87
2022/06/10 12:36:38;;;;;;;20.40;8.43;;;;;;;;;;6071684;23;20342;-81
2022/06/10 12:39:04;;;;;;;15.48;5.75;;;;;;;;;;6097052;23;20014;-82
2022/06/10 12:41:35;;;;;;;8.50;5.03;;;;;;;;;;6097497;23;20002;-82
2022/06/10 12:44:04;;;;;;;12.73;5.45;;;;;;;;;;6097267;23;20014;-84
2022/06/10 12:46:39;;;;;;;9.85;4.80;;;;;;;;;;6097418;23;19998;-81
2022/06/10 12:49:07;;;;;;;9.38;4.63;;;;;;;;;;6097308;23;20009;-83
2022/06/10 12:51:51;;;;;;;7.72;4.50;;;;;;;;;;6097265;23;20081;-83
2022/06/10 12:54:22;;;;;;;18.60;7.88;;;;;;;;;;6097234;23;20013;-84
2022/06/10 12:56:48;;;;;;;5.43;3.78;;;;;;;;;;6071946;23;20007;-84
2022/06/10 12:59:23;;;;;;;17.70;8.80;;;;;;;;;;6096958;23;20363;-84
2022/06/10 13:01:48;;;;;;;;;;;;;;;;;;6097651;23;20488;-85
2022/06/10 13:04:23;;;;;;;9.23;4.20;;;;;;;;;;6096830;23;19976;-86
2022/06/10 13:06:49;;;;;;;;;;;;;;;;;;6097537;23;19998;-85
2022/06/10 13:09:18;;;;;;;6.80;4.15;;;;;;;;;;6071287;23;19948;-84
2022/06/10 13:11:54;;;;;;;6.43;3.58;;;;;;;;;;6071144;23;20007;-84
2022/06/10 13:14:39;;;;;;;4.55;3.40;;;;;;;;;;6070619;23;20104;-84
2022/06/10 13:21:15;;;;;;;;;;;;;;;;;;;;;
2022/06/10 13:24:00;;;;;;;5.28;2.97;;;;;;;;;;5949890;24;20037;-85
2022/06/10 13:30:07;;;;;;;;;;;;;;;;;;;;;
2022/06/10 13:38:50;;;;;;;;;;;;;;;;;;;;;
2022/06/10 13:41:49;;;;;;;3.58;2.72;;;;;;;;;;5790397;24;20094;-84
2022/06/10 13:44:24;;;;;;;3.05;2.75;;;;;;;;;;5821714;24;20014;-84
2022/06/10 13:59:23;;;;;;;;;;;;;;;;;;;;;
2022/06/10 14:05:25;;;;;;;9.45;5.28;;;;;;;;;;5763125;24;20499;-84
2022/06/10 14:14:03;;;;;;;;;;;;;;;;;;;;;
2022/06/10 14:19:46;;;;;;;6.38;4.78;;;;;;;;;;5788067;24;20018;-83
2022/06/10 14:25:33;;;;;;;;;;;;;;;;;;;;;
2022/06/10 14:34:34;;;;;;;;;;;;;;;;;;;;;
2022/06/10 14:40:02;;;;;;;7.78;5.22;;;;;;;;;;5979476;23;20012;-83
2022/06/10 14:42:57;;;;;;;5.15;4.13;;;;;;;;;;6036759;23;20049;-84
2022/06/10 14:45:31;;;;;;;5.55;3.65;;;;;;;;;;6096230;23;20011;-83
2022/06/10 14:48:31;;;;;;;8.85;4.85;;;;;;;;;;6070450;23;20098;-84
2022/06/10 14:51:17;;;;;;;4.20;3.80;;;;;;;;;;6095623;23;20007;-84
2022/06/10 14:53:48;;;;;;;3.97;3.45;;;;;;;;;;6070630;23;20069;-82
2022/06/10 14:56:32;;;;;;;5.13;3.95;;;;;;;;;;6096334;23;20002;-85
2022/06/10 14:58:58;;;;;;;4.13;3.58;;;;;;;;;;6070404;23;20501;-82
2022/06/10 15:01:29;;;;;;;3.95;3.55;;;;;;;;;;6070955;23;20010;-80
2022/06/10 15:03:56;;;;;;;3.95;3.65;;;;;;;;;;6095838;23;20002;-83
2022/06/10 15:06:22;;;;;;;4.78;4.13;;;;;;;;;;6070450;23;20014;-81
2022/06/10 15:08:50;;;;;;;5.10;4.70;;;;;;;;;;6095802;23;20010;-81
2022/06/10 15:11:17;;;;;;;5.03;3.90;;;;;;;;;;6096181;23;20081;-83
2022/06/10 15:13:44;;;;;;;3.88;3.58;;;;;;;;;;6095565;23;20022;-85
2022/06/10 15:16:12;;;;;;;4.18;3.88;;;;;;;;;;6096083;23;20101;-84
2022/06/10 15:18:39;;;;;;;3.85;3.55;;;;;;;;;;6096031;23;20006;-82
2022/06/10 15:21:08;;;;;;;5.13;4.63;;;;;;;;;;6096581;23;19999;-83
2022/06/10 15:23:37;;;;;;;10.75;9.65;;;;;;;;;;6095964;23;20003;-82
2022/06/10 15:26:03;;;;;;;4.72;4.05;;;;;;;;;;6070896;23;20014;-84
2022/06/10 15:28:29;;;;;;;5.15;4.70;;;;;;;;;;6096003;23;20014;-78
2022/06/10 15:30:56;;;;;;;5.05;4.65;;;;;;;;;;6070293;23;20375;-80
2022/06/10 15:33:30;;;;;;;4.57;4.28;;;;;;;;;;6095928;23;20085;-82
2022/06/10 15:41:30;;;;;;;5.63;5.13;;;;;;;;;;6096165;23;20084;-79
2022/06/10 15:43:57;;;;;;;12.25;10.52;;;;;;;;;;6096646;23;20434;-79
2022/06/10 15:46:25;;;;;;;6.80;6.07;;;;;;;;;;6097495;23;20042;-83
2022/06/10 15:48:52;;;;;;;6.22;5.43;;;;;;;;;;6097752;23;20073;-83
2022/06/10 15:51:18;;;;;;;5.55;4.75;;;;;;;;;;6097541;23;20002;-85
2022/06/10 15:53:47;;;;;;;6.75;4.80;;;;;;;;;;6097850;23;20065;-86
2022/06/10 15:58:58;;;;;;;14.90;13.50;;;;;;;;;;6097579;23;20350;-82
2022/06/10 16:01:24;;;;;;;5.90;4.38;;;;;;;;;;6097652;23;20002;-81
2022/06/10 16:03:51;;;;;;;5.25;4.63;;;;;;;;;;6097491;23;20007;-82
2022/06/10 16:06:18;;;;;;;5.32;4.82;;;;;;;;;;6072044;23;20011;-81
2022/06/10 16:08:44;;;;;;;5.80;4.95;;;;;;;;;;6097525;23;20010;-82
2022/06/10 16:11:15;;;;;;;5.28;4.88;;;;;;;;;;6097957;23;20416;-82
2022/06/10 16:13:42;;;;;;;5.47;4.63;;;;;;;;;;6097346;23;20023;-82
2022/06/10 16:16:18;;;;;;;5.10;4.60;;;;;;;;;;6072086;23;20469;-84
2022/06/10 16:18:45;;;;;;;4.78;4.38;;;;;;;;;;6097404;23;20002;-83
2022/06/10 16:21:13;;;;;;;5.40;5.00;;;;;;;;;;6097553;23;20010;-81
2022/06/10 16:23:39;;;;;;;5.57;4.88;;;;;;;;;;6097290;23;20034;-84
2022/06/10 16:26:14;;;;;;;5.45;4.93;;;;;;;;;;6071772;23;20007;-79
2022/06/10 16:28:42;;;;;;;7.47;5.57;;;;;;;;;;6097225;23;20011;-81
2022/06/10 16:31:31;;;;;;;5.50;4.63;;;;;;;;;;6097564;23;20029;-82
2022/06/10 16:33:57;;;;;;;15.73;14.23;;;;;;;;;;6097505;23;20006;-82
2022/06/10 16:36:24;;;;;;;7.63;6.13;;;;;;;;;;6097169;23;20334;-80
2022/06/10 16:38:50;;;;;;;6.50;5.90;;;;;;;;;;6097239;23;20013;-82
2022/06/10 16:41:24;;;;;;;5.70;5.18;;;;;;;;;;6071574;23;20057;-83
2022/06/10 16:43:50;;;;;;;5.97;5.38;;;;;;;;;;6097412;23;20003;-85
2022/06/10 16:46:19;;;;;;;6.72;6.13;;;;;;;;;;6071778;23;20029;-83
2022/06/10 16:48:48;;;;;;;6.20;5.60;;;;;;;;;;6097245;23;20010;-85
2022/06/10 16:51:17;;;;;;;6.38;5.78;;;;;;;;;;6071221;23;20010;-84
2022/06/10 16:53:48;;;;;;;7.28;6.20;;;;;;;;;;6071757;23;20002;-86
2022/06/10 16:56:16;;;;;;;6.72;6.07;;;;;;;;;;6096661;23;20003;-82
2022/06/10 16:58:43;;;;;;;5.90;5.32;;;;;;;;;;6097556;23;20009;-84
2022/06/10 17:01:16;;;;;;;6.95;5.78;;;;;;;;;;6096717;23;20002;-85
2022/06/10 17:03:43;;;;;;;6.77;6.17;;;;;;;;;;6072092;23;20010;-85
2022/06/10 17:06:10;;;;;;;7.05;6.45;;;;;;;;;;6096794;23;20438;-83
2022/06/10 17:08:39;;;;;;;6.85;6.18;;;;;;;;;;6096862;23;20021;-82
2022/06/10 17:11:09;;;;;;;6.75;6.25;;;;;;;;;;6071310;23;20046;-82
2022/06/10 17:13:37;;;;;;;7.30;6.70;;;;;;;;;;6096904;23;20018;-81
2022/06/10 17:16:03;;;;;;;7.38;6.30;;;;;;;;;;6071310;23;20013;-82
2022/06/10 17:18:30;;;;;;;7.30;6.60;;;;;;;;;;6096838;23;20058;-82
2022/06/10 17:20:58;;;;;;;18.15;16.40;;;;;;;;;;6071180;23;20465;-82
2022/06/10 17:23:28;;;;;;;8.02;7.28;;;;;;;;;;6071776;23;20011;-81
2022/06/10 17:25:57;;;;;;;7.85;7.15;;;;;;;;;;6096685;23;20006;-81
2022/06/10 17:28:24;;;;;;;13.98;8.85;;;;;;;;;;6071355;23;20092;-81
2022/06/10 17:30:52;;;;;;;11.85;9.52;;;;;;;;;;6096782;23;20446;-81
2022/06/10 17:33:20;;;;;;;8.57;7.78;;;;;;;;;;6071246;23;20007;-81
2022/06/10 17:35:47;;;;;;;7.75;7.03;;;;;;;;;;6071203;23;20002;-81
2022/06/10 17:38:31;;;;;;;24.40;15.30;;;;;;;;;;6096734;23;20002;-81
2022/06/10 17:40:58;;;;;;;18.27;13.77;;;;;;;;;;6096768;23;20011;-81
2022/06/10 17:43:26;;;;;;;18.80;13.57;;;;;;;;;;6071524;23;20041;-82
2022/06/10 17:45:52;;;;;;;14.80;9.13;;;;;;;;;;6096587;23;20103;-82
2022/06/10 17:48:18;;;;;;;16.85;9.80;;;;;;;;;;6096610;23;20014;-82
2022/06/10 17:50:45;;;;;;;9.30;7.05;;;;;;;;;;6096417;23;20002;-82
2022/06/10 17:53:11;;;;;;;8.52;6.25;;;;;;;;;;6096678;23;20017;-83
2022/06/10 17:55:38;;;;;;;11.18;7.57;;;;;;;;;;6071289;23;20017;-82
2022/06/10 17:58:12;;;;;;;13.90;7.53;;;;;;;;;;6096538;23;20002;-85
2022/06/10 18:00:56;;;;;;;;;;;;;;;;;;6071092;23;20034;-86
2022/06/10 18:09:23;;;;;;;6.35;5.18;;;;;;;;;;5988325;23;20030;-86
2022/06/10 18:14:57;;;;;;;15.35;7.28;;;;;;;;;;5979272;23;20051;-86
2022/06/10 18:17:42;;;;;;;13.48;8.80;;;;;;;;;;5983917;23;20063;-84
2022/06/10 18:20:20;;;;;;;8.27;6.55;;;;;;;;;;5984561;23;20012;-81
2022/06/10 18:23:35;;;;;;;10.65;6.88;;;;;;;;;;5984284;23;20035;-81
2022/06/10 18:26:24;;;;;;;;;;;;;;;;;;;;;
2022/06/10 18:29:02;;;;;;;13.00;7.82;;;;;;;;;;6003132;23;20083;-82
2022/06/10 18:31:59;;;;;;;;;;;;;;;;;;;;;
2022/06/10 18:34:45;;;;;;;10.20;9.27;;;;;;;;;;6008158;23;20083;-85
2022/06/10 18:37:44;;;;;;;;;;;;;;;;;;;;;
2022/06/10 18:43:29;;;;;;;7.05;6.28;;;;;;;;;;6035672;23;20010;-82
2022/06/10 18:46:02;;;;;;;7.00;6.30;;;;;;;;;;6055867;23;20010;-84
2022/06/10 18:48:30;;;;;;;6.20;5.68;;;;;;;;;;6070575;23;20014;-83
2022/06/10 18:50:58;;;;;;;7.25;6.53;;;;;;;;;;6096260;23;20002;-81